WICT2: Wichita River At Wichita Falls, TX

Data processed at Sat Dec 09 2017 23:58


All information presented herein is the property of the government of the United States of America and may be revised or deleted at any time without prior notice.
Dissemination of this information without the expressed written consent of the Public Affairs Office, Tulsa District U.S. Army Corps of Engineers is strictly prohibited.
These data are gathered electronically and, as presented, have not undergone any form of quality control. These data are not guaranteed to be valid or correct.
Go to home page.
Go to station list.

Upstream stations:

Downstream station:
Previous Day
Next Day
Current Day
    
SHEF ID:       WICT2     Wichita Rv at Wichita Falls, TX
STATION TYPE:  

               PRECIP     STAGE  RIV-FLOW  WTR-TEMP   CONDUCT  BAT-LOAD
                   in        ft       cfs         F   umho/cm      volt
              Ccp-Rev   Ccp-Rev   Ccp-Rev   Ccp-Rev   Ccp-Rev   Ccp-Rev
(US/Central)
12/07 00:00      0.00      2.62        33     49.32      6075     12.41
12/07 01:00      0.00      2.61        33     48.94      6070     12.41
12/07 02:00      0.00      2.61        33     48.65      6064     12.41
12/07 03:00      0.00      2.61        33     48.42      6059     12.33
12/07 04:00      0.00      2.61        33     48.07      6052     12.33
12/07 05:00      0.00      2.61        33     47.71      6050     12.33
12/07 06:00      0.00      2.61        33     47.41      6045     12.33
12/07 07:00      0.00      2.61        33     47.07      6045     12.33
12/07 08:00      0.00      2.61        33     46.60      6043     12.25
12/07 09:00      0.00      2.61        33     46.20      6046     12.41
12/07 10:00      0.00      2.61        33     46.02      6049     12.65
12/07 11:00      0.00      2.62        33     45.90      6047     12.97
12/07 12:00      0.00      2.62        33     46.06      6052     13.68
12/07 13:00      0.00      2.62        33     46.27      6063     14.00
12/07 14:00      0.00      2.62        33     46.54      6056     13.92
12/07 15:00      0.00      2.62        33     46.90      6049     13.76
12/07 16:00      0.00      2.62        33     47.07      6037     13.44
12/07 17:00      0.00      2.62        33     46.83      6021     13.05
12/07 18:00      0.00      2.62        33     46.36      6012     12.73
12/07 19:00      0.00      2.62        33     45.81      6007     12.65
12/07 20:00      0.00      2.61        33     45.27      6002     12.57
12/07 21:00      0.00      2.61        33     44.91      5990     12.57
12/07 22:00      0.00      2.61        33     44.42      5990     12.49
12/07 23:00      0.00      2.61        33     43.97      5985     12.41